Time;durP1;ratioP1;P1;durP2;ratioP2;P2;SDS_P1;SDS_P2;PMS_P1;PMS_P2;Temp;Humidity;BMP_temperature;BMP_pressure;BME280_temperature;BME280_humidity;BME280_pressure;Samples;Min_cycle;Max_cycle;Signal;HPM_P1;HPM_P2
2024/01/06 00:00:29;;;;;;;;;16.33;15.00;;;;;8.58;100.00;100106.97;4928295;28;44772;-82
2024/01/06 00:02:55;;;;;;;;;14.00;14.00;;;;;8.56;100.00;100103.44;4927272;28;46798;-83
2024/01/06 00:05:20;;;;;;;;;14.67;10.67;;;;;8.59;100.00;100120.25;4926884;28;45057;-82
2024/01/06 00:07:45;;;;;;;;;15.00;10.67;;;;;8.58;100.00;100118.50;4943637;28;45013;-82
2024/01/06 00:10:11;;;;;;;;;10.33;10.33;;;;;8.55;100.00;100112.25;4944744;28;44835;-83
2024/01/06 00:12:36;;;;;;;;;14.00;12.33;;;;;8.54;100.00;100118.41;4926732;28;46834;-83
2024/01/06 00:15:03;;;;;;;;;10.00;7.00;;;;;8.53;100.00;100104.28;4944949;28;44813;-82
2024/01/06 00:17:28;;;;;;;;;16.00;13.00;;;;;8.56;100.00;100120.25;4944647;28;45190;-82
2024/01/06 00:19:54;;;;;;;;;15.00;12.00;;;;;8.50;100.00;100112.19;4927065;28;44873;-83
2024/01/06 00:22:20;;;;;;;;;9.33;9.33;;;;;8.48;100.00;100113.94;4926389;28;47294;-82
2024/01/06 00:24:46;;;;;;;;;12.33;11.67;;;;;8.54;100.00;100126.38;4944317;28;44774;-82
2024/01/06 00:27:11;;;;;;;;;11.67;11.67;;;;;8.52;100.00;100128.13;4928749;28;44892;-82
2024/01/06 00:29:37;;;;;;;;;11.33;11.33;;;;;8.53;100.00;100130.78;4927502;28;45419;-82
2024/01/06 00:32:02;;;;;;;;;11.33;11.33;;;;;8.49;100.00;100128.97;4927681;28;47038;-83
2024/01/06 00:34:28;;;;;;;;;13.00;13.00;;;;;8.42;100.00;100129.75;4944460;28;44709;-83
2024/01/06 00:36:53;;;;;;;;;15.00;11.00;;;;;8.47;100.00;100136.00;4944282;28;45335;-84
2024/01/06 00:39:20;;;;;;;;;13.33;12.67;;;;;8.48;100.00;100126.28;4927602;28;44935;-84
2024/01/06 00:41:45;;;;;;;;;15.00;12.00;;;;;8.43;100.00;100128.00;4943328;28;44984;-83
2024/01/06 00:44:11;;;;;;;;;13.00;12.33;;;;;8.34;100.00;100112.84;4918612;28;45489;-82
2024/01/06 00:46:37;;;;;;;;;16.67;13.67;;;;;8.53;100.00;100138.75;4906625;28;44738;-83
2024/01/06 00:49:03;;;;;;;;;13.33;11.67;;;;;8.54;100.00;100135.25;4905209;29;44917;-83
2024/01/06 00:51:29;;;;;;;;;13.67;13.67;;;;;8.54;100.00;100136.97;4904364;28;47470;-82
2024/01/06 00:54:01;;;;;;;;;15.00;13.00;;;;;8.51;100.00;100143.13;4904966;28;45218;-82
2024/01/06 00:56:27;;;;;;;;;13.00;13.00;;;;;8.46;100.00;100139.53;4890578;29;44854;-82
2024/01/06 00:58:53;;;;;;;;;12.67;12.67;;;;;8.36;100.00;100142.88;4906905;28;44772;-82
2024/01/06 01:01:19;;;;;;;;;10.67;10.67;;;;;8.31;100.00;100149.91;4906639;28;46480;-82
2024/01/06 01:03:44;;;;;;;;;11.67;11.67;;;;;8.33;100.00;100137.56;4904732;29;44993;-83
2024/01/06 01:06:10;;;;;;;;;12.67;12.67;;;;;8.29;100.00;100155.16;4905845;28;45039;-82
2024/01/06 01:08:35;;;;;;;;;13.33;12.00;;;;;8.27;100.00;100150.72;4906514;28;44798;-83
2024/01/06 01:11:01;;;;;;;;;11.00;11.00;;;;;8.20;100.00;100142.69;4905774;28;45252;-82
2024/01/06 01:13:26;;;;;;;;;15.33;13.00;;;;;8.25;100.00;100155.13;4904477;29;44764;-82
2024/01/06 01:15:52;;;;;;;;;11.67;11.67;;;;;8.23;100.00;100148.91;4904611;28;44746;-82
2024/01/06 01:18:17;;;;;;;;;11.00;11.00;;;;;8.23;100.00;100152.44;4905025;28;45261;-84
2024/01/06 01:20:42;;;;;;;;;16.00;15.67;;;;;8.17;100.00;100158.53;4906955;28;45086;-83
2024/01/06 01:23:08;;;;;;;;;14.00;12.00;;;;;8.20;100.00;100166.53;4904595;28;44840;-82
2024/01/06 01:25:33;;;;;;;;;10.00;10.00;;;;;8.16;100.00;100164.72;4904914;28;44762;-83
2024/01/06 01:27:59;;;;;;;;;12.00;12.00;;;;;8.18;100.00;100159.41;4905838;28;44987;-83
2024/01/06 01:30:25;;;;;;;;;13.00;11.00;;;;;8.20;100.00;100161.25;4904762;28;46773;-82
2024/01/06 01:32:50;;;;;;;;;6.67;6.67;;;;;8.29;100.00;100170.19;4921643;28;44925;-82
2024/01/06 01:35:16;;;;;;;;;15.00;15.00;;;;;8.26;100.00;100160.44;4905955;28;44782;-82
2024/01/06 01:37:41;;;;;;;;;13.00;10.67;;;;;8.24;100.00;100164.81;4904339;28;44890;-82
2024/01/06 01:40:07;;;;;;;;;12.00;11.33;;;;;8.27;100.00;100162.22;4904739;28;47528;-82
2024/01/06 01:42:33;;;;;;;;;11.00;11.00;;;;;8.19;100.00;100162.09;4905390;28;44766;-82
2024/01/06 01:44:59;;;;;;;;;11.33;11.33;;;;;8.21;100.00;100170.06;4930482;28;44772;-83
2024/01/06 01:47:24;;;;;;;;;11.00;11.00;;;;;8.19;100.00;100172.69;4943357;28;44829;-82
2024/01/06 01:49:50;;;;;;;;;12.33;11.67;;;;;8.20;100.00;100179.78;4927368;28;47103;-82
2024/01/06 01:52:16;;;;;;;;;11.00;11.00;;;;;8.14;100.00;100174.41;4926218;28;44927;-82
2024/01/06 01:54:43;;;;;;;;;8.33;7.00;;;;;8.20;100.00;100184.16;4942974;28;44871;-81
2024/01/06 01:57:11;;;;;;;;;16.67;13.00;;;;;8.15;100.00;100181.47;4927890;28;45360;-82
2024/01/06 01:59:36;;;;;;;;;19.00;16.33;;;;;7.96;100.00;100153.81;4943268;28;45617;-83
2024/01/06 11:42:17;;;;;;;;;3.00;3.00;;;;;9.79;100.00;100619.81;5751333;23;46081;-85
2024/01/06 11:57:39;;;;;;;;;3.00;3.00;;;;;10.07;100.00;100612.25;5574487;23;47008;-83
2024/01/06 12:05:17;;;;;;;;;2.00;2.00;;;;;10.30;100.00;100631.19;5631589;23;46422;-83
2024/01/06 12:13:02;;;;;;;;;1.00;0.67;;;;;9.97;96.40;100589.97;5028294;23;46001;-85
2024/01/06 12:20:38;;;;;;;;;3.00;1.00;;;;;9.91;100.00;100565.97;5408456;23;46333;-85
2024/01/06 13:25:42;;;;;;;;;0.25;0.25;;;;;9.98;100.00;100618.34;4877567;23;45544;-85
2024/01/06 13:28:07;;;;;;;;;1.33;0.00;;;;;9.89;96.78;100610.22;4925590;28;47718;-85
2024/01/06 13:30:33;;;;;;;;;0.00;0.00;;;;;9.97;97.92;100619.19;4944360;28;45452;-85
2024/01/06 13:32:59;;;;;;;;;1.00;1.00;;;;;10.01;100.00;100621.03;4928746;28;45354;-85
2024/01/06 13:35:26;;;;;;;;;1.00;1.00;;;;;10.07;94.93;100617.56;4931704;28;45570;-85
2024/01/06 13:37:57;;;;;;;;;2.75;1.00;;;;;10.14;96.64;100622.06;4927631;28;47164;-85
2024/01/06 13:40:24;;;;;;;;;1.00;1.00;;;;;10.14;100.00;100627.38;4947706;28;45442;-85
2024/01/06 13:42:54;;;;;;;;;0.00;0.00;;;;;10.21;100.00;100623.97;4913633;28;45830;-85
2024/01/06 13:45:19;;;;;;;;;2.00;2.00;;;;;10.25;100.00;100624.91;4931986;28;45446;-86
2024/01/06 13:47:45;;;;;;;;;1.00;1.00;;;;;10.18;97.85;100614.19;4929288;28;47268;-85
2024/01/06 13:50:18;;;;;;;;;1.00;1.00;;;;;10.19;92.17;100625.69;4927153;28;45197;-86
2024/01/06 13:52:45;;;;;;;;;0.00;0.00;;;;;10.11;96.67;100627.38;4929072;28;45372;-86
2024/01/06 13:55:11;;;;;;;;;3.00;1.25;;;;;10.09;91.73;100629.09;4927284;28;45533;-85
2024/01/06 13:57:41;;;;;;;;;2.00;1.00;;;;;10.08;99.74;100630.88;4946220;28;46165;-85
2024/01/06 14:00:08;;;;;;;;;1.67;1.00;;;;;10.12;98.13;100632.72;4947438;28;45517;-85
2024/01/06 14:02:34;;;;;;;;;1.00;1.00;;;;;10.04;100.00;100637.03;4926652;28;45583;-86
2024/01/06 14:04:59;;;;;;;;;1.00;1.00;;;;;9.97;100.00;100636.00;4943220;28;45527;-85
2024/01/06 14:07:25;;;;;;;;;1.00;1.00;;;;;9.93;97.80;100644.81;4924801;28;46653;-86
2024/01/06 14:09:50;;;;;;;;;1.50;1.50;;;;;9.92;100.00;100639.50;4942226;28;45322;-85
2024/01/06 14:12:16;;;;;;;;;0.00;0.00;;;;;9.90;98.32;100638.59;4924842;28;45457;-85
2024/01/06 14:14:41;;;;;;;;;3.00;3.00;;;;;9.89;100.00;100637.66;4925682;28;45421;-85
2024/01/06 14:17:07;;;;;;;;;2.00;1.00;;;;;9.91;98.84;100646.56;4925103;28;47463;-85
2024/01/06 14:19:32;;;;;;;;;2.33;1.33;;;;;9.86;99.93;100653.56;4944156;28;45603;-86
2024/01/06 14:22:37;;;;;;;;;1.67;1.67;;;;;9.95;97.01;100651.03;4947931;28;45391;-86
2024/01/06 14:25:06;;;;;;;;;0.25;0.25;;;;;9.79;96.55;100652.56;4947297;28;45710;-86
2024/01/06 14:27:31;;;;;;;;;1.00;1.00;;;;;9.52;91.54;100650.38;4930932;28;47259;-86
2024/01/06 14:29:57;;;;;;;;;1.00;1.00;;;;;9.53;98.63;100651.25;4930685;28;45474;-86
2024/01/06 14:32:24;;;;;;;;;1.00;1.00;;;;;9.60;96.79;100659.34;4951188;28;45518;-86
2024/01/06 14:34:51;;;;;;;;;0.50;0.00;;;;;9.51;97.44;100660.94;4930944;28;45461;-86
2024/01/06 14:37:17;;;;;;;;;2.00;0.00;;;;;9.52;97.53;100668.06;4947513;28;45521;-86
2024/01/06 14:39:43;;;;;;;;;1.00;1.00;;;;;9.48;100.00;100667.09;4947653;28;44829;-86
2024/01/06 14:42:09;;;;;;;;;0.00;0.00;;;;;9.48;94.50;100666.22;4946457;28;45415;-86
2024/01/06 14:44:34;;;;;;;;;1.00;1.00;;;;;9.44;88.54;100670.56;4928828;28;45563;-86
2024/01/06 14:46:59;;;;;;;;;0.00;0.00;;;;;9.51;95.46;100684.84;4928011;28;46889;-86
2024/01/06 14:49:25;;;;;;;;;1.00;1.00;;;;;9.49;94.41;100683.91;4927208;28;46197;-87
2024/01/06 14:51:50;;;;;;;;;0.00;0.00;;;;;9.45;98.35;100684.75;4930299;28;45543;-86
2024/01/06 14:54:16;;;;;;;;;0.00;0.00;;;;;9.40;98.17;100684.66;4933608;28;45512;-86
2024/01/06 14:56:41;;;;;;;;;0.33;0.33;;;;;9.39;97.75;100689.09;4949479;28;46059;-86
2024/01/06 14:59:08;;;;;;;;;1.25;1.25;;;;;9.45;100.00;100682.06;4931102;28;45358;-86
2024/01/06 15:01:33;;;;;;;;;1.00;1.00;;;;;9.50;98.76;100706.97;4930985;28;45461;-86
2024/01/06 15:03:58;;;;;;;;;0.00;0.00;;;;;9.47;100.00;100696.28;4930215;28;45473;-86
2024/01/06 15:06:24;;;;;;;;;0.00;0.00;;;;;9.52;100.00;100710.53;4945652;28;45469;-85
2024/01/06 15:08:59;;;;;;;;;0.33;0.33;;;;;9.43;100.00;100700.63;4947104;28;45758;-85
2024/01/06 15:11:24;;;;;;;;;1.00;1.00;;;;;9.46;97.99;100710.44;4928717;28;45537;-86
2024/01/06 15:13:49;;;;;;;;;0.33;0.00;;;;;9.49;100.00;100706.03;4927030;28;45374;-85
2024/01/06 15:16:15;;;;;;;;;2.00;2.00;;;;;9.60;99.36;100719.53;4944993;28;46208;-86
2024/01/06 15:18:40;;;;;;;;;1.00;1.00;;;;;9.52;94.03;100726.47;4937792;28;45385;-86
2024/01/06 15:21:05;;;;;;;;;0.00;0.00;;;;;9.46;88.64;100726.34;4906181;28;45449;-86
2024/01/06 15:23:31;;;;;;;;;0.00;0.00;;;;;9.38;90.84;100711.16;4927134;28;45375;-87
2024/01/06 15:25:56;;;;;;;;;0.25;0.00;;;;;9.41;95.09;100719.22;4904427;29;48970;-86
2024/01/06 15:28:21;;;;;;;;;0.50;0.50;;;;;9.45;97.06;100719.25;4906861;29;45378;-86
2024/01/06 15:30:47;;;;;;;;;0.00;0.00;;;;;9.45;93.99;100713.94;4921094;28;45490;-85
2024/01/06 15:33:14;;;;;;;;;0.00;0.00;;;;;9.43;98.85;100727.16;4905669;29;44937;-86
2024/01/06 15:35:39;;;;;;;;;0.00;0.00;;;;;9.43;89.09;100723.63;4905547;28;47414;-86
2024/01/06 15:38:05;;;;;;;;;1.00;1.00;;;;;9.38;93.91;100715.59;4910705;28;45547;-86
2024/01/06 15:40:37;;;;;;;;;2.67;1.00;;;;;9.55;96.33;100722.13;4911495;28;45449;-86
2024/01/06 15:43:02;;;;;;;;;1.00;1.00;;;;;9.49;99.00;100727.28;4919610;28;45436;-86
2024/01/06 15:45:28;;;;;;;;;1.00;1.00;;;;;9.50;96.49;100733.50;4919993;28;47747;-85
2024/01/06 15:47:53;;;;;;;;;2.67;0.00;;;;;9.45;100.00;100724.56;4906426;28;45730;-86
2024/01/06 15:50:19;;;;;;;;;2.33;1.00;;;;;9.49;94.42;100739.66;4907124;28;45569;-85
2024/01/06 15:52:46;;;;;;;;;1.00;1.00;;;;;9.48;97.56;100738.78;4921996;28;45369;-85
2024/01/06 15:55:12;;;;;;;;;3.00;0.33;;;;;9.45;99.76;100735.16;4921879;28;47278;-85
2024/01/06 15:57:40;;;;;;;;;1.33;1.00;;;;;9.56;98.99;100746.91;4908745;28;46075;-85
2024/01/06 16:00:06;;;;;;;;;0.67;0.67;;;;;9.51;100.00;100745.91;4906868;28;45404;-85
2024/01/06 16:02:32;;;;;;;;;0.00;0.00;;;;;9.35;97.17;100737.69;4925439;28;45421;-86
2024/01/06 16:04:58;;;;;;;;;1.00;1.00;;;;;9.46;95.23;100752.91;4923453;28;47840;-85
2024/01/06 16:07:24;;;;;;;;;1.00;0.67;;;;;9.44;95.89;100757.28;4923273;28;45585;-85
2024/01/06 16:09:49;;;;;;;;;1.00;1.00;;;;;9.41;98.97;100766.06;4907031;29;45432;-85
2024/01/06 16:12:16;;;;;;;;;0.25;0.25;;;;;9.36;95.05;100758.03;4922994;28;45086;-85
2024/01/06 16:14:41;;;;;;;;;1.00;1.00;;;;;9.29;95.08;100766.75;4906497;29;48244;-85
2024/01/06 16:17:07;;;;;;;;;2.25;0.75;;;;;9.30;96.31;100765.88;4907341;28;45585;-86
2024/01/06 16:19:33;;;;;;;;;0.00;0.00;;;;;9.28;95.54;100772.91;4928819;28;45579;-85
2024/01/06 16:22:06;;;;;;;;;1.00;1.00;;;;;9.36;96.95;100770.41;4906514;28;45521;-85
2024/01/06 16:24:33;;;;;;;;;0.25;0.00;;;;;9.18;92.47;100770.94;4905370;28;45431;-85
2024/01/06 16:26:59;;;;;;;;;0.75;0.00;;;;;9.15;95.66;100768.22;4907711;28;45683;-85
2024/01/06 16:29:24;;;;;;;;;2.00;1.00;;;;;9.15;100.00;100771.78;4906381;28;45774;-84
2024/01/06 16:31:50;;;;;;;;;2.00;0.00;;;;;9.16;95.85;100780.63;4904719;29;45484;-84
2024/01/06 16:34:15;;;;;;;;;2.00;2.00;;;;;9.13;95.55;100770.84;4903215;28;47681;-84
2024/01/06 16:36:42;;;;;;;;;1.00;1.00;;;;;9.12;92.52;100779.66;4903212;29;45428;-84
2024/01/06 16:39:07;;;;;;;;;1.67;1.00;;;;;9.12;96.44;100782.31;4904002;29;45343;-84
2024/01/06 16:41:33;;;;;;;;;2.00;2.00;;;;;9.15;100.00;100784.13;4905423;28;45502;-84
2024/01/06 16:43:58;;;;;;;;;2.00;1.00;;;;;9.09;94.84;100784.00;4904014;29;47121;-85
2024/01/06 16:46:24;;;;;;;;;1.00;1.00;;;;;9.06;98.47;100781.31;4903922;29;45402;-84
2024/01/06 16:48:49;;;;;;;;;3.33;1.67;;;;;9.10;99.34;100794.66;4903459;29;45378;-83
2024/01/06 16:51:15;;;;;;;;;2.33;2.33;;;;;9.08;97.86;100796.38;4905219;28;45596;-85
2024/01/06 16:54:09;;;;;;;;;2.00;2.00;;;;;9.15;95.11;100794.75;4919455;28;47527;-85
2024/01/06 16:56:35;;;;;;;;;1.00;1.00;;;;;8.92;95.87;100786.31;4903946;29;45411;-84
2024/01/06 16:59:00;;;;;;;;;1.00;1.00;;;;;8.89;100.00;100791.56;4903239;29;45455;-84
2024/01/06 17:01:26;;;;;;;;;3.00;2.00;;;;;8.96;100.00;100796.13;4903516;28;45551;-85
2024/01/06 17:03:52;;;;;;;;;2.00;2.00;;;;;8.93;100.00;100802.25;4901958;29;46539;-85
2024/01/06 17:06:18;;;;;;;;;3.00;3.00;;;;;9.00;100.00;100805.94;4903883;28;45525;-85
2024/01/06 17:08:43;;;;;;;;;1.00;1.00;;;;;8.97;100.00;100803.22;4904885;28;45538;-85
2024/01/06 17:11:09;;;;;;;;;3.67;1.00;;;;;9.04;100.00;100812.22;4906711;28;45442;-85
2024/01/06 17:13:35;;;;;;;;;8.33;5.00;;;;;8.98;100.00;100807.66;4903018;29;47178;-85
2024/01/06 17:16:00;;;;;;;;;1.33;1.33;;;;;8.93;100.00;100812.00;4903272;29;46012;-85
2024/01/06 17:18:27;;;;;;;;;4.67;4.67;;;;;8.94;100.00;100809.34;4905087;28;45344;-85
2024/01/06 17:20:52;;;;;;;;;5.33;2.00;;;;;8.85;100.00;100814.47;4906626;29;45640;-85
2024/01/06 17:23:18;;;;;;;;;2.00;1.00;;;;;8.79;100.00;100822.28;4908980;28;45007;-85
2024/01/06 17:25:43;;;;;;;;;3.67;3.00;;;;;8.73;100.00;100831.00;4916298;28;45436;-85
2024/01/06 17:28:09;;;;;;;;;2.00;1.67;;;;;8.68;100.00;100829.09;4891674;28;45523;-85
2024/01/06 17:30:37;;;;;;;;;2.00;2.00;;;;;8.67;100.00;100829.97;4891123;28;45365;-84
2024/01/06 17:33:03;;;;;;;;;2.00;2.00;;;;;8.57;100.00;100832.38;4924691;28;47227;-84
2024/01/06 17:35:28;;;;;;;;;2.00;2.00;;;;;8.51;100.00;100837.53;4924176;28;45489;-85
2024/01/06 17:37:54;;;;;;;;;6.00;3.33;;;;;8.56;100.00;100840.28;4906912;28;45491;-85
2024/01/06 17:40:19;;;;;;;;;2.00;2.00;;;;;8.60;100.00;100837.78;4909261;28;45493;-85
2024/01/06 17:42:51;;;;;;;;;5.00;5.00;;;;;8.77;100.00;100846.09;4907719;28;48275;-85
2024/01/06 17:45:16;;;;;;;;;3.00;3.00;;;;;8.61;100.00;100838.66;4924537;28;45492;-85
2024/01/06 17:47:44;;;;;;;;;3.67;3.67;;;;;8.60;100.00;100844.81;4907457;28;45497;-85
2024/01/06 17:50:10;;;;;;;;;4.00;4.00;;;;;8.55;100.00;100838.53;4907991;28;44788;-85
2024/01/06 17:52:35;;;;;;;;;6.00;5.00;;;;;8.46;100.00;100839.16;4897117;28;46753;-85
2024/01/06 17:55:02;;;;;;;;;4.00;3.00;;;;;8.55;100.00;100847.34;4933444;28;45503;-85
2024/01/06 17:57:33;;;;;;;;;5.00;5.00;;;;;8.39;100.00;100831.91;4931658;28;45418;-85
2024/01/06 17:59:59;;;;;;;;;4.33;4.33;;;;;8.46;100.00;100844.47;4916058;28;45465;-85
2024/01/06 18:02:25;;;;;;;;;8.00;8.00;;;;;8.49;100.00;100844.56;4914979;28;47742;-85
2024/01/06 18:04:52;;;;;;;;;8.67;8.67;;;;;8.45;100.00;100850.66;4901141;28;45351;-85
2024/01/06 18:07:17;;;;;;;;;7.33;7.33;;;;;8.45;100.00;100842.69;4917499;28;45456;-85
2024/01/06 18:10:38;;;;;;;;;6.33;6.00;;;;;8.66;100.00;100846.72;4914187;28;45494;-85
2024/01/06 18:13:04;;;;;;;;;6.33;6.33;;;;;8.52;100.00;100843.72;4915408;28;47484;-85
2024/01/06 18:15:29;;;;;;;;;9.67;6.67;;;;;8.57;100.00;100853.59;4914328;28;45465;-85
2024/01/06 18:17:55;;;;;;;;;7.00;6.00;;;;;8.59;100.00;100867.78;4931969;28;44942;-85
2024/01/06 18:20:21;;;;;;;;;5.00;5.00;;;;;8.65;100.00;100866.16;4930821;28;45681;-85
2024/01/06 18:22:48;;;;;;;;;6.00;5.00;;;;;8.72;100.00;100868.06;4928390;28;45361;-85
2024/01/06 18:25:13;;;;;;;;;4.33;4.33;;;;;8.53;100.00;100846.44;4907335;29;45485;-85
2024/01/06 18:27:39;;;;;;;;;5.00;5.00;;;;;8.66;100.00;100859.97;4910105;28;45437;-84
2024/01/06 18:30:05;;;;;;;;;3.00;3.00;;;;;8.68;100.00;100879.47;4909949;28;45301;-84
2024/01/06 18:32:31;;;;;;;;;3.33;3.33;;;;;8.64;100.00;100869.66;4910790;28;45446;-84
2024/01/06 18:34:57;;;;;;;;;6.67;3.67;;;;;8.63;100.00;100865.22;4908130;28;45489;-84
2024/01/06 18:37:22;;;;;;;;;7.67;5.00;;;;;8.61;100.00;100871.34;4906216;29;45382;-85
2024/01/06 18:39:48;;;;;;;;;6.33;6.33;;;;;8.56;100.00;100867.72;4911916;28;45780;-84
2024/01/06 18:42:24;;;;;;;;;3.00;3.00;;;;;8.64;100.00;100869.66;4909861;29;48059;-84
2024/01/06 18:44:50;;;;;;;;;2.00;2.00;;;;;8.51;100.00;100866.69;4906510;29;45520;-84
2024/01/06 18:47:15;;;;;;;;;5.00;2.67;;;;;8.48;100.00;100865.72;4907229;29;45337;-84
2024/01/06 18:49:41;;;;;;;;;5.67;5.67;;;;;8.50;100.00;100866.66;4911058;29;45341;-84
2024/01/06 18:52:07;;;;;;;;;3.67;3.67;;;;;8.45;100.00;100871.84;4910491;28;46969;-83
2024/01/06 18:54:40;;;;;;;;;5.67;5.67;;;;;8.46;100.00;100881.56;4909290;29;45398;-84
2024/01/06 18:57:06;;;;;;;;;7.00;7.00;;;;;8.41;100.00;100877.94;4907673;28;45270;-84
2024/01/06 18:59:34;;;;;;;;;5.67;5.00;;;;;8.36;100.00;100879.53;4908714;28;45374;-84
2024/01/06 19:02:00;;;;;;;;;1.67;1.67;;;;;8.04;100.00;100834.59;4908598;29;47676;-85
2024/01/06 19:04:27;;;;;;;;;6.00;4.33;;;;;8.27;100.00;100864.28;4903191;28;44883;-84
2024/01/06 19:06:53;;;;;;;;;7.67;5.67;;;;;8.30;100.00;100890.88;4903497;29;45499;-85
2024/01/06 19:09:20;;;;;;;;;5.00;3.00;;;;;8.27;100.00;100892.56;4906516;28;45417;-84
2024/01/06 19:11:45;;;;;;;;;5.33;5.33;;;;;8.27;100.00;100900.50;4907229;28;47179;-84
2024/01/06 19:14:11;;;;;;;;;7.67;7.67;;;;;8.23;100.00;100907.47;4909091;28;45334;-84
2024/01/06 19:16:36;;;;;;;;;10.00;7.00;;;;;8.16;100.00;100906.41;4908477;28;45398;-84
2024/01/06 19:19:03;;;;;;;;;6.67;5.67;;;;;8.19;100.00;100910.91;4906440;28;45420;-84
2024/01/06 19:21:29;;;;;;;;;6.33;5.33;;;;;8.19;100.00;100925.03;4910128;29;45516;-84
2024/01/06 19:23:55;;;;;;;;;5.00;5.00;;;;;8.15;100.00;100912.56;4912429;29;45657;-85
2024/01/06 19:26:34;;;;;;;;;6.33;6.00;;;;;8.25;100.00;100913.69;4905201;28;45690;-85
2024/01/06 19:29:00;;;;;;;;;5.00;5.00;;;;;8.24;100.00;100921.59;4905013;29;45526;-85
2024/01/06 19:31:26;;;;;;;;;5.00;5.00;;;;;8.17;100.00;100932.03;4905144;28;47273;-86
2024/01/06 19:33:53;;;;;;;;;6.00;5.00;;;;;8.17;100.00;100929.38;4906381;28;45353;-84
2024/01/06 19:36:18;;;;;;;;;6.67;6.67;;;;;8.16;100.00;100945.25;4909606;28;45445;-84
2024/01/06 19:38:45;;;;;;;;;7.67;6.00;;;;;8.16;100.00;100937.28;4908674;28;44883;-85
2024/01/06 19:41:10;;;;;;;;;3.00;3.00;;;;;8.11;100.00;100947.78;4908999;28;46004;-85
2024/01/06 19:43:36;;;;;;;;;11.67;6.00;;;;;8.11;100.00;100936.28;4905768;28;45650;-85
2024/01/06 19:46:06;;;;;;;;;3.67;3.67;;;;;8.19;100.00;100948.00;4911231;28;45378;-86
2024/01/06 19:48:32;;;;;;;;;3.00;3.00;;;;;8.01;100.00;100943.97;4910724;29;45469;-85
2024/01/06 19:50:57;;;;;;;;;3.67;3.00;;;;;7.98;100.00;100937.72;4904402;29;47343;-85
2024/01/06 19:53:23;;;;;;;;;5.00;2.00;;;;;8.05;100.00;100952.91;4906200;28;45614;-85
2024/01/06 19:55:48;;;;;;;;;3.00;3.00;;;;;8.02;100.00;100948.44;4904634;28;45523;-85
2024/01/06 19:58:13;;;;;;;;;3.00;3.00;;;;;8.07;100.00;100945.91;4905883;28;44813;-85
2024/01/06 20:00:40;;;;;;;;;7.00;7.00;;;;;8.08;100.00;100952.06;4905387;29;46977;-86
2024/01/06 20:03:05;;;;;;;;;5.33;5.33;;;;;8.11;100.00;100946.88;4907460;28;45584;-86
2024/01/06 20:05:31;;;;;;;;;3.00;3.00;;;;;8.11;100.00;100946.88;4906192;28;45318;-86
2024/01/06 20:07:57;;;;;;;;;2.00;2.00;;;;;8.10;100.00;100946.00;4905078;28;45417;-86
2024/01/06 20:10:22;;;;;;;;;5.00;5.00;;;;;8.10;100.00;100945.06;4906699;28;46633;-86
2024/01/06 20:12:49;;;;;;;;;4.33;2.33;;;;;8.14;100.00;100953.16;4905209;28;45390;-85
2024/01/06 20:15:14;;;;;;;;;3.00;3.00;;;;;8.08;100.00;100953.00;4903715;28;45510;-86
2024/01/06 20:17:40;;;;;;;;;5.67;5.00;;;;;8.18;100.00;100960.34;4905674;28;45525;-86
2024/01/06 20:20:10;;;;;;;;;7.00;5.67;;;;;8.19;100.00;100945.34;4904943;29;47337;-85
2024/01/06 20:22:35;;;;;;;;;7.67;6.00;;;;;8.06;100.00;100938.81;4904292;28;45789;-85
2024/01/06 20:25:01;;;;;;;;;7.00;7.00;;;;;8.17;100.00;100947.03;4906081;28;45523;-85
2024/01/06 20:27:27;;;;;;;;;5.00;5.00;;;;;8.16;100.00;100954.09;4908160;28;45401;-86
2024/01/06 20:29:53;;;;;;;;;5.33;5.33;;;;;8.11;100.00;100953.06;4906619;28;47117;-86
2024/01/06 20:32:21;;;;;;;;;5.50;5.50;;;;;8.16;100.00;100967.34;4907470;28;45488;-85
2024/01/06 20:34:47;;;;;;;;;5.00;5.00;;;;;8.17;100.00;100969.13;4906716;28;45401;-86
2024/01/06 20:37:12;;;;;;;;;4.33;4.33;;;;;8.21;100.00;100965.72;4907385;28;45401;-86
2024/01/06 20:39:38;;;;;;;;;8.33;8.33;;;;;8.21;100.00;100965.72;4906890;28;47501;-87
2024/01/06 20:42:04;;;;;;;;;5.67;4.33;;;;;8.26;100.00;100964.94;4924353;28;45445;-86
2024/01/06 20:44:30;;;;;;;;;8.33;7.33;;;;;8.18;100.00;100949.75;4893153;28;45468;-85
2024/01/06 20:46:56;;;;;;;;;6.33;6.33;;;;;8.20;100.00;100966.59;4925485;28;45462;-85
2024/01/06 20:49:24;;;;;;;;;8.00;8.00;;;;;8.20;100.00;100966.59;4924615;28;46797;-85
2024/01/06 20:51:55;;;;;;;;;6.67;6.33;;;;;8.23;100.00;100951.63;4923073;28;45525;-85
2024/01/06 20:54:20;;;;;;;;;7.00;7.00;;;;;8.17;100.00;100962.94;4904708;28;45449;-86
2024/01/06 20:56:46;;;;;;;;;10.00;6.00;;;;;8.02;100.00;100940.47;4908634;28;45382;-85
2024/01/06 20:59:12;;;;;;;;;6.33;5.33;;;;;8.11;100.00;100963.66;4908551;28;47940;-85
2024/01/06 21:01:45;;;;;;;;;6.33;6.33;;;;;8.09;100.00;100964.50;4908389;28;45510;-85
2024/01/06 21:04:27;;;;;;;;;;;;;;;;;;;;;
2024/01/06 21:09:42;;;;;;;;;7.00;7.00;;;;;8.08;100.00;100974.19;4917382;28;46634;-85
2024/01/06 21:12:07;;;;;;;;;8.67;8.00;;;;;7.87;100.00;100952.38;4927016;28;45443;-85
2024/01/06 21:14:33;;;;;;;;;5.00;5.00;;;;;7.80;100.00;100938.97;4912889;28;45561;-85
2024/01/06 21:16:58;;;;;;;;;5.67;5.67;;;;;8.01;100.00;100966.91;4896725;28;45457;-85
2024/01/06 21:19:24;;;;;;;;;6.00;6.00;;;;;8.01;100.00;100980.16;4925195;28;46157;-85
2024/01/06 21:21:50;;;;;;;;;6.00;6.00;;;;;7.99;100.00;100968.63;4908974;28;45744;-86
2024/01/06 21:24:16;;;;;;;;;3.00;3.00;;;;;7.94;100.00;100964.97;4925135;28;44721;-85
2024/01/06 21:26:42;;;;;;;;;6.00;6.00;;;;;7.91;100.00;100959.56;4900812;29;45453;-85
2024/01/06 21:29:08;;;;;;;;;5.33;5.33;;;;;7.89;100.00;100972.75;4918698;28;47525;-84
2024/01/06 21:31:34;;;;;;;;;5.33;5.33;;;;;7.86;100.00;100959.44;4916988;28;45345;-84
2024/01/06 21:33:59;;;;;;;;;6.00;6.00;;;;;7.88;100.00;100967.44;4908595;28;44772;-84
2024/01/06 21:36:25;;;;;;;;;7.33;6.00;;;;;7.85;100.00;100959.41;4919717;28;45415;-84
2024/01/06 21:38:51;;;;;;;;;3.00;3.00;;;;;7.78;100.00;100972.47;4899925;29;47150;-84
2024/01/06 21:41:16;;;;;;;;;7.00;5.33;;;;;7.72;100.00;100964.34;4901125;29;45531;-85
2024/01/06 21:43:42;;;;;;;;;3.00;3.00;;;;;7.67;100.00;100973.88;4901104;28;45478;-84
2024/01/06 21:46:07;;;;;;;;;7.00;5.00;;;;;7.66;100.00;100969.47;4901507;28;45462;-85
2024/01/06 21:48:33;;;;;;;;;4.33;4.33;;;;;7.64;100.00;100981.75;4900798;29;47411;-84
2024/01/06 21:51:01;;;;;;;;;5.33;5.33;;;;;7.63;100.00;100966.69;4917189;28;45877;-83
2024/01/06 21:53:27;;;;;;;;;2.67;2.67;;;;;7.61;100.00;100971.06;4918162;28;45325;-83
2024/01/06 21:55:53;;;;;;;;;7.67;5.33;;;;;7.63;100.00;100972.00;4918060;28;45423;-83
2024/01/06 21:58:18;;;;;;;;;5.67;3.00;;;;;7.60;100.00;100970.16;4919198;28;48942;-84
2024/01/06 22:00:48;;;;;;;;;5.50;5.00;;;;;7.67;100.00;100975.63;4922689;28;45391;-84
2024/01/06 22:03:14;;;;;;;;;5.00;5.00;;;;;7.49;100.00;100971.56;4892660;29;45891;-84
2024/01/06 22:05:39;;;;;;;;;5.33;5.33;;;;;7.54;100.00;100974.38;4920347;28;45535;-84
2024/01/06 22:08:07;;;;;;;;;5.00;5.00;;;;;7.50;100.00;100976.03;4919315;28;47051;-85
2024/01/06 22:10:32;;;;;;;;;6.67;3.67;;;;;7.49;100.00;100982.16;4906476;28;45777;-85
2024/01/06 22:12:59;;;;;;;;;5.00;5.00;;;;;7.56;100.00;100980.63;4905380;29;45650;-85
2024/01/06 22:15:25;;;;;;;;;4.33;3.00;;;;;7.55;100.00;100987.66;4920149;28;45673;-85
2024/01/06 22:17:52;;;;;;;;;5.33;5.33;;;;;7.56;100.00;100988.56;4920135;28;47821;-85
2024/01/06 22:20:19;;;;;;;;;6.00;6.00;;;;;7.59;100.00;100994.84;4904632;28;45449;-85
2024/01/06 22:22:45;;;;;;;;;2.00;2.00;;;;;7.58;100.00;100992.16;4903109;28;45473;-85
2024/01/06 22:25:10;;;;;;;;;3.00;3.00;;;;;7.59;100.00;100996.56;4903233;28;45533;-85
2024/01/06 22:27:35;;;;;;;;;5.67;3.00;;;;;7.58;100.00;100992.16;4922308;28;47151;-85
2024/01/06 22:30:02;;;;;;;;;9.67;5.67;;;;;7.61;100.00;100997.53;4908583;28;45423;-83
2024/01/06 22:32:28;;;;;;;;;2.33;2.33;;;;;7.58;100.00;100984.22;4908273;28;45852;-85
2024/01/06 22:34:54;;;;;;;;;2.00;2.00;;;;;7.55;100.00;100999.97;4925107;28;45435;-84